createdAt,value
2023-05-21T00:01:53.106Z,1.40
2023-05-21T00:04:23.797Z,1.40
2023-05-21T00:06:55.933Z,1.42
2023-05-21T00:09:26.437Z,1.67
2023-05-21T00:11:59.287Z,1.17
2023-05-21T00:14:29.519Z,1.60
2023-05-21T00:17:01.610Z,1.40
2023-05-21T00:19:33.163Z,1.30
2023-05-21T00:22:05.108Z,1.70
2023-05-21T00:24:35.603Z,1.42
2023-05-21T00:27:07.573Z,1.58
2023-05-21T00:29:39.131Z,1.50
2023-05-21T00:32:10.569Z,1.70
2023-05-21T00:34:45.881Z,1.63
2023-05-21T00:37:17.393Z,1.60
2023-05-21T00:39:47.859Z,1.63
2023-05-21T00:42:21.030Z,1.30
2023-05-21T00:44:51.456Z,1.23
2023-05-21T00:47:24.072Z,1.33
2023-05-21T00:49:55.245Z,1.65
2023-05-21T00:52:27.843Z,1.50
2023-05-21T00:54:59.041Z,1.25
2023-05-21T00:57:33.772Z,1.60
2023-05-21T01:00:05.336Z,1.27
2023-05-21T01:02:37.698Z,1.35
2023-05-21T01:05:09.098Z,1.30
2023-05-21T01:07:47.541Z,1.35
2023-05-21T01:10:18.044Z,1.50
2023-05-21T01:12:51.971Z,1.40
2023-05-21T01:15:22.780Z,1.40
2023-05-21T01:17:54.770Z,1.60
2023-05-21T01:20:28.014Z,1.35
2023-05-21T01:23:01.665Z,1.60
2023-05-21T01:25:32.470Z,1.25
2023-05-21T01:28:02.947Z,1.30
2023-05-21T01:30:41.540Z,1.40
2023-05-21T01:33:21.419Z,1.40
2023-05-21T01:36:03.046Z,1.60
2023-05-21T01:38:45.115Z,1.50
2023-05-21T01:41:21.475Z,1.50
2023-05-21T01:43:53.130Z,1.65
2023-05-21T01:46:28.300Z,1.52
2023-05-21T01:49:00.476Z,1.45
2023-05-21T01:51:32.706Z,1.52
2023-05-21T01:54:09.269Z,1.42
2023-05-21T01:56:39.093Z,1.33
2023-05-21T01:59:10.001Z,1.52
2023-05-21T02:01:40.554Z,1.38
2023-05-21T02:04:11.504Z,1.27
2023-05-21T02:06:42.437Z,1.58
2023-05-21T02:09:15.300Z,1.65
2023-05-21T02:11:45.845Z,1.60
2023-05-21T02:14:17.228Z,1.60
2023-05-21T02:16:47.629Z,1.58
2023-05-21T02:19:18.536Z,1.35
2023-05-21T02:21:49.084Z,1.80
2023-05-21T02:24:22.673Z,1.40
2023-05-21T02:26:54.058Z,1.70
2023-05-21T02:29:24.508Z,1.48
2023-05-21T02:31:54.480Z,1.50
2023-05-21T02:34:25.128Z,1.45
2023-05-21T02:36:55.612Z,1.38
2023-05-21T02:39:28.110Z,1.60
2023-05-21T02:41:58.650Z,1.30
2023-05-21T02:44:29.441Z,1.60
2023-05-21T02:47:00.476Z,1.63
2023-05-21T02:49:31.215Z,1.35
2023-05-21T02:52:01.927Z,1.35
2023-05-21T02:54:34.855Z,1.50
2023-05-21T02:57:05.429Z,1.38
2023-05-21T02:59:35.903Z,1.40
2023-05-21T03:02:06.543Z,1.27
2023-05-21T03:04:39.497Z,1.58
2023-05-21T03:07:11.477Z,1.40
2023-05-21T03:09:44.260Z,1.30
2023-05-21T03:12:14.916Z,1.80
2023-05-21T03:14:46.705Z,1.30
2023-05-21T03:17:17.354Z,1.45
2023-05-21T03:19:47.652Z,1.48
2023-05-21T03:22:17.643Z,1.45
2023-05-21T03:24:51.334Z,1.30
2023-05-21T03:27:21.489Z,1.50
2023-05-21T03:29:52.360Z,1.42
2023-05-21T03:32:23.251Z,1.40
2023-05-21T03:34:53.366Z,1.80
2023-05-21T03:37:24.224Z,1.60
2023-05-21T03:39:56.934Z,1.52
2023-05-21T03:42:29.985Z,1.60
2023-05-21T03:45:00.324Z,1.58
2023-05-21T03:47:30.801Z,1.23
2023-05-21T03:50:01.688Z,1.33
2023-05-21T03:52:31.951Z,1.40
2023-05-21T03:55:07.417Z,1.30
2023-05-21T03:57:37.830Z,1.50
2023-05-21T04:00:10.611Z,1.60
2023-05-21T04:02:41.431Z,1.60
2023-05-21T04:05:25.529Z,1.50
2023-05-21T04:07:55.818Z,1.65
2023-05-21T04:10:28.162Z,1.70
2023-05-21T04:12:57.747Z,1.40
2023-05-21T04:15:29.352Z,1.55
2023-05-21T04:17:59.407Z,1.70
2023-05-21T04:20:29.560Z,1.70
2023-05-21T04:23:00.302Z,1.85
2023-05-21T04:25:32.282Z,1.83
2023-05-21T04:28:05.055Z,1.80
2023-05-21T04:30:36.969Z,1.80
2023-05-21T04:33:10.438Z,1.55
2023-05-21T04:35:44.916Z,1.58
2023-05-21T04:38:20.055Z,1.75
2023-05-21T04:40:53.629Z,1.60
2023-05-21T04:43:26.435Z,1.80
2023-05-21T04:45:57.449Z,1.50
2023-05-21T04:48:29.383Z,1.42
2023-05-21T04:51:00.309Z,1.52
2023-05-21T04:53:30.606Z,1.67
2023-05-21T04:56:04.458Z,1.60
2023-05-21T04:58:35.176Z,1.45
2023-05-21T05:01:06.123Z,1.60
2023-05-21T05:03:36.395Z,1.73
2023-05-21T05:06:08.171Z,1.70
2023-05-21T05:08:38.490Z,1.60
2023-05-21T05:11:11.143Z,1.52
2023-05-21T05:13:43.028Z,1.73
2023-05-21T05:16:14.872Z,1.48
2023-05-21T05:18:44.818Z,1.48
2023-05-21T05:21:15.159Z,1.50
2023-05-21T05:23:45.951Z,1.70
2023-05-21T05:26:18.138Z,1.70
2023-05-21T05:28:48.584Z,1.60
2023-05-21T05:31:19.361Z,1.60
2023-05-21T05:33:50.711Z,1.50
2023-05-21T05:36:21.564Z,1.52
2023-05-21T05:38:52.312Z,1.70
2023-05-21T05:41:25.419Z,1.50
2023-05-21T05:43:55.742Z,1.35
2023-05-21T05:46:27.090Z,1.27
2023-05-21T05:48:57.505Z,1.60
2023-05-21T05:51:28.573Z,1.33
2023-05-21T05:53:58.568Z,1.50
2023-05-21T05:56:31.157Z,1.48
2023-05-21T05:59:02.291Z,1.60
2023-05-21T06:01:33.134Z,1.30
2023-05-21T06:04:02.963Z,1.38
2023-05-21T06:06:35.418Z,1.60
2023-05-21T06:09:06.114Z,1.58
2023-05-21T06:11:38.646Z,1.42
2023-05-21T06:14:08.985Z,1.45
2023-05-21T06:16:39.317Z,1.58
2023-05-21T06:19:09.465Z,1.42
2023-05-21T06:21:39.451Z,1.58
2023-05-21T06:24:10.164Z,1.30
2023-05-21T06:26:49.435Z,1.60
2023-05-21T06:29:19.732Z,1.65
2023-05-21T06:31:52.889Z,1.50
2023-05-21T06:34:26.420Z,1.45
2023-05-21T06:36:57.189Z,1.48
2023-05-21T06:39:27.650Z,1.55
2023-05-21T06:41:59.955Z,1.42
2023-05-21T06:44:30.098Z,1.45
2023-05-21T06:47:00.516Z,1.38
2023-05-21T06:49:30.798Z,1.33
2023-05-21T06:52:01.915Z,1.30
2023-05-21T06:54:32.090Z,1.50
2023-05-21T06:57:04.588Z,1.60
2023-05-21T06:59:35.118Z,1.40
2023-05-21T07:02:05.260Z,1.60
2023-05-21T07:04:35.664Z,1.58
2023-05-21T07:07:07.139Z,1.75
2023-05-21T07:09:37.007Z,1.40
2023-05-21T07:12:10.213Z,1.38
2023-05-21T07:14:40.693Z,1.48
2023-05-21T07:17:11.083Z,1.50
2023-05-21T07:19:41.682Z,1.63
2023-05-21T07:22:13.026Z,1.40
2023-05-21T07:24:43.275Z,1.52
2023-05-21T07:27:25.201Z,1.42
2023-05-21T07:29:56.200Z,1.27
2023-05-21T07:32:29.879Z,1.48
2023-05-21T07:35:04.519Z,1.60
2023-05-21T07:37:35.225Z,1.35
2023-05-21T07:40:06.763Z,1.20
2023-05-21T07:42:39.005Z,1.25
2023-05-21T07:45:11.253Z,1.38
2023-05-21T07:47:42.162Z,1.33
2023-05-21T07:50:14.300Z,1.27
2023-05-21T07:52:44.881Z,1.65
2023-05-21T07:55:15.133Z,1.42
2023-05-21T07:57:46.997Z,1.40
2023-05-21T08:00:18.453Z,1.35
2023-05-21T08:02:48.347Z,1.20
2023-05-21T08:05:18.479Z,1.40
2023-05-21T08:07:49.046Z,1.30
2023-05-21T08:10:19.644Z,1.55
2023-05-21T08:12:51.750Z,1.40
2023-05-21T08:15:22.205Z,1.42
2023-05-21T08:17:52.750Z,3.67
2023-05-21T08:20:22.885Z,2.22
2023-05-21T08:22:54.011Z,1.60
2023-05-21T08:25:24.349Z,1.40
2023-05-21T08:27:56.880Z,1.65
2023-05-21T08:30:27.469Z,1.65
2023-05-21T08:32:57.922Z,1.50
2023-05-21T08:35:28.059Z,1.60
2023-05-21T08:37:57.888Z,1.55
2023-05-21T08:40:28.400Z,1.38
2023-05-21T08:43:00.828Z,1.55
2023-05-21T08:45:39.013Z,1.52
2023-05-21T08:48:12.306Z,1.42
2023-05-21T08:50:44.001Z,1.70
2023-05-21T08:53:23.953Z,1.15
2023-05-21T08:56:02.107Z,1.25
2023-05-21T08:58:35.482Z,1.40
2023-05-21T09:01:07.555Z,1.42
2023-05-21T09:03:42.698Z,1.50
2023-05-21T09:06:16.761Z,1.40
2023-05-21T09:08:51.708Z,1.35
2023-05-21T09:11:22.528Z,1.40
2023-05-21T09:13:58.314Z,1.52
2023-05-21T09:16:28.864Z,1.30
2023-05-21T09:18:58.958Z,1.50
2023-05-21T09:21:30.985Z,1.40
2023-05-21T09:24:03.567Z,1.50
2023-05-21T09:26:34.753Z,1.40
2023-05-21T09:29:07.979Z,1.40
2023-05-21T09:31:38.887Z,1.40
2023-05-21T09:34:10.142Z,1.52
2023-05-21T09:36:41.508Z,1.30
2023-05-21T09:39:16.667Z,1.40
2023-05-21T09:41:47.474Z,1.55
2023-05-21T09:44:19.837Z,1.60
2023-05-21T09:46:50.411Z,1.40
2023-05-21T09:49:28.596Z,1.40
2023-05-21T09:52:00.067Z,1.58
2023-05-21T09:54:36.895Z,1.42
2023-05-21T09:57:07.778Z,1.30
2023-05-21T09:59:44.037Z,1.50
2023-05-21T10:02:27.397Z,1.30
2023-05-21T10:05:00.969Z,1.40
2023-05-21T10:07:32.263Z,1.35
2023-05-21T10:10:05.949Z,1.42
2023-05-21T10:12:38.640Z,1.50
2023-05-21T10:15:17.371Z,1.30
2023-05-21T10:17:49.286Z,1.20
2023-05-21T10:20:21.540Z,1.38
2023-05-21T10:22:53.455Z,1.40
2023-05-21T10:25:26.115Z,1.33
2023-05-21T10:27:59.701Z,1.60
2023-05-21T10:30:34.100Z,1.45
2023-05-21T10:33:06.817Z,1.25
2023-05-21T10:35:39.200Z,1.50
2023-05-21T10:38:12.806Z,1.60
2023-05-21T10:40:42.827Z,1.67
2023-05-21T10:43:53.582Z,1.65
2023-05-21T10:47:22.534Z,1.50
2023-05-21T10:50:18.623Z,1.15
2023-05-21T10:53:10.587Z,1.50
2023-05-21T10:55:58.886Z,1.30
2023-05-21T10:59:07.686Z,1.58
2023-05-21T11:01:43.740Z,1.30
2023-05-21T11:04:16.105Z,1.38
2023-05-21T11:06:51.036Z,1.42
2023-05-21T11:09:21.564Z,1.35
2023-05-21T11:11:54.795Z,1.40
2023-05-21T11:14:39.828Z,1.23
2023-05-21T11:17:38.306Z,1.52
2023-05-21T11:20:14.570Z,1.25
2023-05-21T11:22:44.891Z,1.40
2023-05-21T11:25:15.900Z,1.40
2023-05-21T11:27:45.510Z,1.30
2023-05-21T11:30:22.165Z,1.40
2023-05-21T11:33:30.908Z,1.30
2023-05-21T11:36:02.189Z,1.30
2023-05-21T11:38:34.537Z,1.48
2023-05-21T11:41:08.005Z,1.20
2023-05-21T11:43:43.760Z,1.23
2023-05-21T11:46:17.425Z,1.33
2023-05-21T11:48:52.571Z,1.40
2023-05-21T11:51:24.351Z,1.40
2023-05-21T11:53:54.479Z,1.48
2023-05-21T11:56:25.663Z,1.50
2023-05-21T11:59:01.119Z,1.35
2023-05-21T12:01:32.199Z,1.30
2023-05-21T12:04:06.944Z,1.33
2023-05-21T12:06:38.818Z,1.50
2023-05-21T12:09:10.837Z,1.38
2023-05-21T12:11:41.889Z,1.40
2023-05-21T12:14:13.111Z,1.40
2023-05-21T12:16:43.598Z,1.38
2023-05-21T12:19:20.672Z,1.23
2023-05-21T12:21:52.032Z,1.17
2023-05-21T12:24:22.371Z,1.40
2023-05-21T12:26:53.086Z,1.40
2023-05-21T12:29:23.906Z,1.30
2023-05-21T12:31:54.461Z,1.42
2023-05-21T12:34:51.637Z,1.27
2023-05-21T12:37:26.646Z,1.48
2023-05-21T12:40:00.516Z,1.27
2023-05-21T12:42:35.334Z,1.40
2023-05-21T12:45:11.042Z,1.38
2023-05-21T12:47:41.730Z,1.30
2023-05-21T12:50:16.885Z,1.40
2023-05-21T12:52:47.834Z,1.60
2023-05-21T12:55:19.368Z,1.30
2023-05-21T12:57:49.613Z,1.33
2023-05-21T13:00:27.262Z,1.27
2023-05-21T13:03:00.508Z,1.35
2023-05-21T13:05:32.976Z,1.48
2023-05-21T13:08:02.746Z,1.25
2023-05-21T13:10:33.204Z,1.30
2023-05-21T13:13:03.629Z,1.20
2023-05-21T13:15:33.721Z,1.30
2023-05-21T13:18:04.406Z,1.17
2023-05-21T13:20:37.161Z,1.33
2023-05-21T13:23:10.569Z,1.42
2023-05-21T13:25:41.480Z,1.45
2023-05-21T13:28:15.597Z,1.50
2023-05-21T13:30:46.064Z,1.42
2023-05-21T13:33:16.622Z,1.30
2023-05-21T13:35:51.718Z,1.20
2023-05-21T13:38:22.307Z,1.40
2023-05-21T13:40:52.579Z,1.30
2023-05-21T13:43:23.178Z,1.25
2023-05-21T13:45:54.176Z,1.38
2023-05-21T13:48:24.569Z,1.30
2023-05-21T13:50:57.174Z,1.50
2023-05-21T13:53:27.766Z,1.30
2023-05-21T13:55:58.066Z,1.50
2023-05-21T13:58:34.962Z,1.20
2023-05-21T14:01:06.416Z,1.48
2023-05-21T14:03:37.289Z,1.60
2023-05-21T14:06:15.659Z,1.50
2023-05-21T14:08:46.551Z,1.50
2023-05-21T14:11:26.881Z,1.38
2023-05-21T14:13:58.455Z,1.00
2023-05-21T14:16:35.652Z,1.42
2023-05-21T14:19:09.342Z,1.42
2023-05-21T14:21:43.790Z,1.50
2023-05-21T14:24:14.867Z,1.58
2023-05-21T14:26:52.340Z,1.60
2023-05-21T14:29:25.563Z,1.30
2023-05-21T14:32:04.558Z,1.70
2023-05-21T14:34:35.444Z,1.27
2023-05-21T14:37:11.527Z,1.50
2023-05-21T14:39:49.770Z,1.55
2023-05-21T14:42:20.965Z,1.30
2023-05-21T14:44:52.336Z,1.50
2023-05-21T14:47:22.800Z,1.60
2023-05-21T14:49:53.219Z,1.50
2023-05-21T14:52:26.059Z,1.48
2023-05-21T14:55:00.530Z,1.25
2023-05-21T14:57:44.213Z,1.33
2023-05-21T15:00:20.645Z,1.38
2023-05-21T15:02:57.571Z,1.30
2023-05-21T15:05:36.393Z,1.40
2023-05-21T15:13:39.995Z,1.15
2023-05-21T15:17:20.998Z,1.60
2023-05-21T15:19:55.539Z,1.50
2023-05-21T15:22:29.569Z,1.40
2023-05-21T15:25:02.131Z,1.50
2023-05-21T15:27:32.770Z,1.58
2023-05-21T15:30:10.504Z,1.90
2023-05-21T15:32:41.155Z,1.67
2023-05-21T15:35:13.598Z,1.70
2023-05-21T15:37:44.060Z,1.75
2023-05-21T15:40:16.370Z,1.48
2023-05-21T15:42:46.423Z,1.60
2023-05-21T15:45:19.097Z,1.50
2023-05-21T15:47:54.602Z,1.48
2023-05-21T15:50:25.228Z,1.52
2023-05-21T15:52:55.283Z,1.38
2023-05-21T15:55:25.792Z,1.48
2023-05-21T15:58:12.325Z,1.38
2023-05-21T16:00:47.897Z,1.73
2023-05-21T16:03:17.972Z,1.40
2023-05-21T16:05:47.789Z,1.50
2023-05-21T16:08:17.793Z,1.35
2023-05-21T16:10:48.155Z,1.50
2023-05-21T16:13:23.088Z,1.58
2023-05-21T16:15:55.284Z,1.42
2023-05-21T16:18:26.682Z,1.42
2023-05-21T16:20:59.177Z,1.45
2023-05-21T16:23:29.834Z,1.58
2023-05-21T16:26:00.140Z,1.48
2023-05-21T16:28:33.025Z,1.40
2023-05-21T16:31:05.299Z,1.52
2023-05-21T16:33:35.550Z,1.50
2023-05-21T16:36:08.731Z,1.60
2023-05-21T16:38:38.673Z,1.45
2023-05-21T16:41:09.049Z,1.50
2023-05-21T16:43:39.322Z,1.40
2023-05-21T16:46:11.782Z,1.45
2023-05-21T16:48:43.161Z,1.55
2023-05-21T16:51:13.192Z,1.60
2023-05-21T16:53:43.226Z,1.50
2023-05-21T16:56:13.735Z,1.50
2023-05-21T16:58:47.570Z,1.45
2023-05-21T17:01:19.902Z,1.50
2023-05-21T17:03:50.340Z,1.70
2023-05-21T17:06:20.837Z,1.40
2023-05-21T17:08:51.557Z,1.52
2023-05-21T17:11:22.142Z,1.65
2023-05-21T17:13:52.672Z,1.45
2023-05-21T17:16:27.135Z,1.63
2023-05-21T17:18:57.685Z,1.45
2023-05-21T17:21:28.684Z,1.67
2023-05-21T17:23:58.293Z,1.70
2023-05-21T17:26:29.299Z,1.75
2023-05-21T17:28:59.798Z,1.58
2023-05-21T17:31:44.360Z,1.70
2023-05-21T17:34:15.462Z,1.80
2023-05-21T17:37:06.619Z,1.38
2023-05-21T17:39:39.739Z,1.58
2023-05-21T17:42:12.032Z,1.90
2023-05-21T17:44:50.346Z,1.55
2023-05-21T17:47:23.251Z,1.55
2023-05-21T17:49:53.716Z,1.70
2023-05-21T17:52:24.157Z,1.73
2023-05-21T17:54:54.579Z,1.73
2023-05-21T17:57:25.051Z,1.65
2023-05-21T17:59:56.688Z,1.63
2023-05-21T18:02:32.195Z,1.88
2023-05-21T18:05:05.369Z,1.75
2023-05-21T18:07:37.197Z,1.67
2023-05-21T18:10:08.535Z,1.80
2023-05-21T18:12:39.366Z,1.73
2023-05-21T18:15:10.704Z,1.55
2023-05-21T18:17:58.825Z,1.60
2023-05-21T18:20:30.554Z,1.67
2023-05-21T18:23:00.900Z,1.70
2023-05-21T18:25:31.498Z,1.80
2023-05-21T18:28:02.586Z,1.92
2023-05-21T18:30:33.016Z,1.42
2023-05-21T18:33:04.884Z,1.80
2023-05-21T18:35:35.490Z,1.80
2023-05-21T18:38:10.574Z,1.95
2023-05-21T18:40:41.407Z,1.88
2023-05-21T18:43:17.561Z,1.50
2023-05-21T18:45:49.647Z,1.70
2023-05-21T18:48:25.069Z,1.60
2023-05-21T18:50:59.745Z,1.67
2023-05-21T18:53:33.464Z,1.75
2023-05-21T18:56:05.493Z,1.70
2023-05-21T18:58:36.579Z,1.63
2023-05-21T19:01:11.604Z,1.80
2023-05-21T19:03:44.940Z,1.70
2023-05-21T19:06:16.099Z,1.75
2023-05-21T19:08:47.081Z,1.80
2023-05-21T19:11:19.148Z,1.60
2023-05-21T19:13:49.557Z,1.77
2023-05-21T19:16:19.429Z,1.83
2023-05-21T19:18:51.932Z,1.85
2023-05-21T19:21:32.173Z,1.80
2023-05-21T19:24:05.827Z,2.00
2023-05-21T19:26:36.782Z,1.80
2023-05-21T19:29:07.431Z,2.13
2023-05-21T19:31:45.514Z,1.70
2023-05-21T19:34:37.981Z,1.88
2023-05-21T19:37:09.680Z,2.00
2023-05-21T19:39:46.007Z,1.63
2023-05-21T19:42:18.297Z,1.90
2023-05-21T19:44:49.024Z,1.98
2023-05-21T19:47:19.292Z,1.75
2023-05-21T19:49:56.588Z,1.90
2023-05-21T19:52:38.000Z,2.10
2023-05-21T19:55:20.983Z,2.00
2023-05-21T19:57:51.890Z,1.98
2023-05-21T20:00:59.628Z,1.80
2023-05-21T20:06:58.954Z,1.90
2023-05-21T20:09:29.372Z,1.80
2023-05-21T20:11:59.816Z,1.92
2023-05-21T20:14:29.960Z,2.10
2023-05-21T20:17:16.750Z,1.92
2023-05-21T20:19:48.404Z,1.90
2023-05-21T20:22:25.046Z,1.98
2023-05-21T20:24:56.263Z,2.00
2023-05-21T20:27:26.855Z,2.10
2023-05-21T20:29:56.663Z,2.10
2023-05-21T20:32:29.468Z,2.08
2023-05-21T20:35:03.398Z,1.90
2023-05-21T20:37:37.404Z,2.10
2023-05-21T20:40:13.444Z,2.00
2023-05-21T20:42:45.634Z,1.90
2023-05-21T20:45:16.245Z,1.88
2023-05-21T20:47:48.343Z,2.25
2023-05-21T20:50:22.070Z,2.03
2023-05-21T20:52:55.046Z,1.90
2023-05-21T20:55:25.014Z,2.20
2023-05-21T20:57:55.132Z,2.25
2023-05-21T21:00:25.301Z,2.10
2023-05-21T21:02:55.216Z,2.22
2023-05-21T21:05:26.652Z,2.20
2023-05-21T21:08:08.460Z,2.20
2023-05-21T21:10:42.841Z,2.25
2023-05-21T21:13:34.614Z,2.40
2023-05-21T21:16:26.730Z,2.33
2023-05-21T21:19:01.200Z,2.28
2023-05-21T21:21:41.100Z,2.08
2023-05-21T21:24:17.180Z,2.40
2023-05-21T21:26:53.178Z,2.35
2023-05-21T21:29:29.410Z,2.15
2023-05-21T21:32:11.164Z,2.17
2023-05-21T21:34:44.220Z,2.15
2023-05-21T21:37:24.875Z,2.20
2023-05-21T21:40:04.850Z,2.30
2023-05-21T21:42:57.752Z,2.25
2023-05-21T21:45:35.822Z,2.00
2023-05-21T21:48:13.323Z,2.13
2023-05-21T21:50:56.675Z,2.15
2023-05-21T21:53:31.010Z,2.40
2023-05-21T21:56:13.120Z,2.20
2023-05-21T21:58:48.195Z,2.10
2023-05-21T22:01:37.684Z,2.17
2023-05-21T22:04:23.403Z,2.17
2023-05-21T22:07:11.570Z,2.10
2023-05-21T22:09:44.662Z,2.20
2023-05-21T22:12:17.803Z,2.30
2023-05-21T22:14:47.694Z,2.05
2023-05-21T22:17:18.163Z,2.28
2023-05-21T22:19:48.005Z,2.15
2023-05-21T22:22:18.513Z,2.10
2023-05-21T22:24:48.947Z,2.25
2023-05-21T22:27:21.683Z,1.90
2023-05-21T22:29:52.066Z,2.00
2023-05-21T22:32:22.957Z,1.98
2023-05-21T22:34:53.404Z,2.20
2023-05-21T22:37:23.951Z,1.90
2023-05-21T22:39:54.384Z,2.15
2023-05-21T22:42:26.101Z,2.00
2023-05-21T22:44:56.539Z,1.83
2023-05-21T22:47:26.990Z,2.17
2023-05-21T22:49:58.802Z,1.80
2023-05-21T22:52:29.854Z,1.75
2023-05-21T22:55:01.531Z,1.98
2023-05-21T22:57:33.808Z,2.05
2023-05-21T23:00:04.743Z,1.83
2023-05-21T23:02:37.845Z,1.90
2023-05-21T23:05:09.347Z,2.00
2023-05-21T23:07:40.000Z,1.65
2023-05-21T23:10:11.466Z,1.50
2023-05-21T23:12:43.839Z,1.60
2023-05-21T23:15:15.363Z,1.58
2023-05-21T23:17:46.341Z,1.58
2023-05-21T23:20:18.145Z,1.60
2023-05-21T23:22:52.275Z,1.65
2023-05-21T23:25:22.679Z,1.55
2023-05-21T23:27:54.070Z,1.27
2023-05-21T23:30:24.426Z,1.30
2023-05-21T23:32:54.822Z,1.30
2023-05-21T23:35:24.688Z,1.05
2023-05-21T23:37:58.730Z,1.10
2023-05-21T23:40:28.399Z,1.48
2023-05-21T23:43:00.963Z,1.40
2023-05-21T23:45:31.625Z,1.38
2023-05-21T23:48:01.813Z,1.23
2023-05-21T23:50:32.372Z,1.10
2023-05-21T23:53:02.419Z,1.35
2023-05-21T23:55:32.521Z,1.33
2023-05-21T23:58:04.932Z,1.20
